sensor_id;sensor_type;location;lat;lon;timestamp;P1;durP1;ratioP1;P2;durP2;ratioP2
15258;SDS011;34462;51.368;12.364;2023-08-06T00:00:49;5.68;;;5.18;;
15258;SDS011;34462;51.368;12.364;2023-08-06T00:03:18;6.03;;;5.45;;
15258;SDS011;34462;51.368;12.364;2023-08-06T00:05:46;5.70;;;4.93;;
15258;SDS011;34462;51.368;12.364;2023-08-06T00:08:15;5.60;;;4.97;;
15258;SDS011;34462;51.368;12.364;2023-08-06T00:10:43;5.95;;;5.25;;
15258;SDS011;34462;51.368;12.364;2023-08-06T00:13:12;5.78;;;5.20;;
15258;SDS011;34462;51.368;12.364;2023-08-06T00:15:40;5.07;;;4.63;;
15258;SDS011;34462;51.368;12.364;2023-08-06T00:18:08;6.00;;;5.40;;
15258;SDS011;34462;51.368;12.364;2023-08-06T00:20:38;5.78;;;4.57;;
15258;SDS011;34462;51.368;12.364;2023-08-06T00:23:07;5.93;;;4.80;;
15258;SDS011;34462;51.368;12.364;2023-08-06T00:25:37;6.13;;;5.10;;
15258;SDS011;34462;51.368;12.364;2023-08-06T00:28:05;5.43;;;4.90;;
15258;SDS011;34462;51.368;12.364;2023-08-06T00:30:33;5.50;;;5.00;;
15258;SDS011;34462;51.368;12.364;2023-08-06T00:33:02;5.63;;;5.05;;
15258;SDS011;34462;51.368;12.364;2023-08-06T00:35:30;5.65;;;4.90;;
15258;SDS011;34462;51.368;12.364;2023-08-06T00:37:58;8.05;;;5.60;;
15258;SDS011;34462;51.368;12.364;2023-08-06T00:40:26;6.03;;;5.25;;
15258;SDS011;34462;51.368;12.364;2023-08-06T00:42:57;5.25;;;4.75;;
15258;SDS011;34462;51.368;12.364;2023-08-06T00:45:26;5.85;;;5.00;;
15258;SDS011;34462;51.368;12.364;2023-08-06T00:47:56;6.00;;;5.30;;
15258;SDS011;34462;51.368;12.364;2023-08-06T00:50:24;5.53;;;5.03;;
15258;SDS011;34462;51.368;12.364;2023-08-06T00:52:53;5.93;;;5.28;;
15258;SDS011;34462;51.368;12.364;2023-08-06T00:55:22;6.10;;;5.50;;
15258;SDS011;34462;51.368;12.364;2023-08-06T00:57:50;5.82;;;5.22;;
15258;SDS011;34462;51.368;12.364;2023-08-06T01:00:23;6.45;;;5.75;;
15258;SDS011;34462;51.368;12.364;2023-08-06T01:02:53;5.70;;;4.97;;
15258;SDS011;34462;51.368;12.364;2023-08-06T01:05:22;5.40;;;4.90;;
15258;SDS011;34462;51.368;12.364;2023-08-06T01:07:52;6.45;;;5.30;;
15258;SDS011;34462;51.368;12.364;2023-08-06T01:10:51;6.45;;;5.35;;
15258;SDS011;34462;51.368;12.364;2023-08-06T01:13:33;7.40;;;5.57;;
15258;SDS011;34462;51.368;12.364;2023-08-06T01:16:11;6.80;;;5.65;;
15258;SDS011;34462;51.368;12.364;2023-08-06T01:18:43;6.10;;;5.28;;
15258;SDS011;34462;51.368;12.364;2023-08-06T01:21:16;5.93;;;5.32;;
15258;SDS011;34462;51.368;12.364;2023-08-06T01:23:45;5.95;;;5.30;;
15258;SDS011;34462;51.368;12.364;2023-08-06T01:26:19;7.22;;;5.88;;
15258;SDS011;34462;51.368;12.364;2023-08-06T01:29:02;6.03;;;5.40;;
15258;SDS011;34462;51.368;12.364;2023-08-06T01:31:37;6.22;;;5.00;;
15258;SDS011;34462;51.368;12.364;2023-08-06T01:34:10;5.88;;;5.35;;
15258;SDS011;34462;51.368;12.364;2023-08-06T01:36:49;6.20;;;5.57;;
15258;SDS011;34462;51.368;12.364;2023-08-06T01:39:18;6.90;;;6.00;;
15258;SDS011;34462;51.368;12.364;2023-08-06T01:41:47;6.47;;;5.70;;
15258;SDS011;34462;51.368;12.364;2023-08-06T01:44:16;6.20;;;5.60;;
15258;SDS011;34462;51.368;12.364;2023-08-06T01:46:45;6.22;;;5.63;;
15258;SDS011;34462;51.368;12.364;2023-08-06T01:49:13;6.00;;;5.43;;
15258;SDS011;34462;51.368;12.364;2023-08-06T01:51:41;7.15;;;5.45;;
15258;SDS011;34462;51.368;12.364;2023-08-06T01:54:10;6.15;;;5.53;;
15258;SDS011;34462;51.368;12.364;2023-08-06T01:56:38;6.53;;;6.00;;
15258;SDS011;34462;51.368;12.364;2023-08-06T01:59:07;6.18;;;5.60;;
15258;SDS011;34462;51.368;12.364;2023-08-06T02:01:35;6.05;;;5.55;;
15258;SDS011;34462;51.368;12.364;2023-08-06T02:04:03;7.28;;;5.70;;
15258;SDS011;34462;51.368;12.364;2023-08-06T02:06:31;5.85;;;5.35;;
15258;SDS011;34462;51.368;12.364;2023-08-06T02:08:59;6.78;;;5.78;;
15258;SDS011;34462;51.368;12.364;2023-08-06T02:11:29;5.82;;;5.28;;
15258;SDS011;34462;51.368;12.364;2023-08-06T02:13:57;5.60;;;5.10;;
15258;SDS011;34462;51.368;12.364;2023-08-06T02:16:25;8.65;;;5.35;;
15258;SDS011;34462;51.368;12.364;2023-08-06T02:18:53;5.93;;;5.43;;
15258;SDS011;34462;51.368;12.364;2023-08-06T02:21:21;6.80;;;6.07;;
15258;SDS011;34462;51.368;12.364;2023-08-06T02:23:50;6.05;;;5.45;;
15258;SDS011;34462;51.368;12.364;2023-08-06T02:26:18;6.10;;;5.53;;
15258;SDS011;34462;51.368;12.364;2023-08-06T02:28:47;8.18;;;5.97;;
15258;SDS011;34462;51.368;12.364;2023-08-06T02:31:16;6.93;;;6.22;;
15258;SDS011;34462;51.368;12.364;2023-08-06T02:33:44;8.52;;;6.18;;
15258;SDS011;34462;51.368;12.364;2023-08-06T02:36:12;7.22;;;6.53;;
15258;SDS011;34462;51.368;12.364;2023-08-06T02:38:40;7.03;;;6.32;;
15258;SDS011;34462;51.368;12.364;2023-08-06T02:41:08;7.15;;;6.45;;
15258;SDS011;34462;51.368;12.364;2023-08-06T02:43:37;6.55;;;5.78;;
15258;SDS011;34462;51.368;12.364;2023-08-06T02:46:06;5.93;;;5.43;;
15258;SDS011;34462;51.368;12.364;2023-08-06T02:48:35;6.40;;;5.80;;
15258;SDS011;34462;51.368;12.364;2023-08-06T02:51:03;8.23;;;6.07;;
15258;SDS011;34462;51.368;12.364;2023-08-06T02:53:32;6.93;;;6.22;;
15258;SDS011;34462;51.368;12.364;2023-08-06T02:56:00;6.18;;;5.63;;
15258;SDS011;34462;51.368;12.364;2023-08-06T02:58:28;6.40;;;5.75;;
15258;SDS011;34462;51.368;12.364;2023-08-06T03:01:00;7.38;;;6.35;;
15258;SDS011;34462;51.368;12.364;2023-08-06T03:03:31;6.88;;;6.28;;
15258;SDS011;34462;51.368;12.364;2023-08-06T03:06:01;6.60;;;6.00;;
15258;SDS011;34462;51.368;12.364;2023-08-06T03:08:29;6.68;;;6.07;;
15258;SDS011;34462;51.368;12.364;2023-08-06T03:10:57;6.88;;;6.28;;
15258;SDS011;34462;51.368;12.364;2023-08-06T03:13:25;6.63;;;6.07;;
15258;SDS011;34462;51.368;12.364;2023-08-06T03:15:55;8.25;;;6.72;;
15258;SDS011;34462;51.368;12.364;2023-08-06T03:18:25;6.80;;;5.95;;
15258;SDS011;34462;51.368;12.364;2023-08-06T03:20:55;6.38;;;5.78;;
15258;SDS011;34462;51.368;12.364;2023-08-06T03:23:23;6.95;;;6.25;;
15258;SDS011;34462;51.368;12.364;2023-08-06T03:25:51;6.75;;;6.15;;
15258;SDS011;34462;51.368;12.364;2023-08-06T03:28:19;6.90;;;6.30;;
15258;SDS011;34462;51.368;12.364;2023-08-06T03:30:48;6.88;;;6.28;;
15258;SDS011;34462;51.368;12.364;2023-08-06T03:33:27;6.75;;;6.05;;
15258;SDS011;34462;51.368;12.364;2023-08-06T03:35:56;7.97;;;6.25;;
15258;SDS011;34462;51.368;12.364;2023-08-06T03:38:25;7.05;;;6.35;;
15258;SDS011;34462;51.368;12.364;2023-08-06T03:40:53;7.38;;;6.60;;
15258;SDS011;34462;51.368;12.364;2023-08-06T03:43:22;6.85;;;6.10;;
15258;SDS011;34462;51.368;12.364;2023-08-06T03:45:50;7.13;;;6.53;;
15258;SDS011;34462;51.368;12.364;2023-08-06T03:48:18;6.63;;;6.03;;
15258;SDS011;34462;51.368;12.364;2023-08-06T03:50:46;7.65;;;7.05;;
15258;SDS011;34462;51.368;12.364;2023-08-06T03:53:16;7.82;;;7.13;;
15258;SDS011;34462;51.368;12.364;2023-08-06T03:55:44;7.90;;;6.78;;
15258;SDS011;34462;51.368;12.364;2023-08-06T03:58:12;8.82;;;7.10;;
15258;SDS011;34462;51.368;12.364;2023-08-06T04:00:40;7.80;;;6.20;;
15258;SDS011;34462;51.368;12.364;2023-08-06T04:03:09;7.50;;;6.80;;
15258;SDS011;34462;51.368;12.364;2023-08-06T04:05:37;7.40;;;6.72;;
15258;SDS011;34462;51.368;12.364;2023-08-06T04:08:05;7.75;;;6.97;;
15258;SDS011;34462;51.368;12.364;2023-08-06T04:10:35;7.78;;;6.95;;
15258;SDS011;34462;51.368;12.364;2023-08-06T04:13:03;7.40;;;6.65;;
15258;SDS011;34462;51.368;12.364;2023-08-06T04:15:33;7.45;;;6.32;;
15258;SDS011;34462;51.368;12.364;2023-08-06T04:18:01;7.70;;;6.18;;
15258;SDS011;34462;51.368;12.364;2023-08-06T04:20:30;8.43;;;7.60;;
15258;SDS011;34462;51.368;12.364;2023-08-06T04:22:58;6.80;;;6.10;;
15258;SDS011;34462;51.368;12.364;2023-08-06T04:25:26;7.07;;;6.47;;
15258;SDS011;34462;51.368;12.364;2023-08-06T04:27:55;8.18;;;7.00;;
15258;SDS011;34462;51.368;12.364;2023-08-06T04:30:24;7.25;;;6.63;;
15258;SDS011;34462;51.368;12.364;2023-08-06T04:32:52;7.32;;;6.00;;
15258;SDS011;34462;51.368;12.364;2023-08-06T04:35:20;7.40;;;6.70;;
15258;SDS011;34462;51.368;12.364;2023-08-06T04:37:48;7.20;;;6.50;;
15258;SDS011;34462;51.368;12.364;2023-08-06T04:40:16;7.13;;;6.53;;
15258;SDS011;34462;51.368;12.364;2023-08-06T04:42:45;7.40;;;6.13;;
15258;SDS011;34462;51.368;12.364;2023-08-06T04:45:14;8.02;;;6.43;;
15258;SDS011;34462;51.368;12.364;2023-08-06T04:47:43;7.68;;;6.95;;
15258;SDS011;34462;51.368;12.364;2023-08-06T04:50:11;8.60;;;6.70;;
15258;SDS011;34462;51.368;12.364;2023-08-06T04:52:39;7.45;;;6.70;;
15258;SDS011;34462;51.368;12.364;2023-08-06T04:55:07;7.80;;;7.10;;
15258;SDS011;34462;51.368;12.364;2023-08-06T04:57:35;7.32;;;6.72;;
15258;SDS011;34462;51.368;12.364;2023-08-06T05:00:04;7.05;;;6.25;;
15258;SDS011;34462;51.368;12.364;2023-08-06T05:02:35;5.70;;;5.20;;
15258;SDS011;34462;51.368;12.364;2023-08-06T05:05:05;5.28;;;4.78;;
15258;SDS011;34462;51.368;12.364;2023-08-06T05:07:33;7.03;;;4.28;;
15258;SDS011;34462;51.368;12.364;2023-08-06T05:10:02;4.32;;;3.92;;
15258;SDS011;34462;51.368;12.364;2023-08-06T05:12:30;4.63;;;3.70;;
15258;SDS011;34462;51.368;12.364;2023-08-06T05:14:59;4.07;;;3.47;;
15258;SDS011;34462;51.368;12.364;2023-08-06T05:17:27;6.85;;;3.00;;
15258;SDS011;34462;51.368;12.364;2023-08-06T05:19:56;3.95;;;3.20;;
15258;SDS011;34462;51.368;12.364;2023-08-06T05:22:25;3.22;;;2.92;;
15258;SDS011;34462;51.368;12.364;2023-08-06T05:24:53;3.90;;;3.50;;
15258;SDS011;34462;51.368;12.364;2023-08-06T05:27:21;3.95;;;3.42;;
15258;SDS011;34462;51.368;12.364;2023-08-06T05:29:49;3.50;;;3.25;;
15258;SDS011;34462;51.368;12.364;2023-08-06T05:32:22;4.22;;;3.42;;
15258;SDS011;34462;51.368;12.364;2023-08-06T05:34:50;3.58;;;3.28;;
15258;SDS011;34462;51.368;12.364;2023-08-06T05:37:20;3.55;;;3.25;;
15258;SDS011;34462;51.368;12.364;2023-08-06T05:39:48;3.50;;;3.20;;
15258;SDS011;34462;51.368;12.364;2023-08-06T05:42:16;3.22;;;3.00;;
15258;SDS011;34462;51.368;12.364;2023-08-06T05:44:45;3.47;;;3.17;;
15258;SDS011;34462;51.368;12.364;2023-08-06T05:47:13;4.75;;;3.50;;
15258;SDS011;34462;51.368;12.364;2023-08-06T05:49:41;4.72;;;3.13;;
15258;SDS011;34462;51.368;12.364;2023-08-06T05:52:09;2.70;;;2.50;;
15258;SDS011;34462;51.368;12.364;2023-08-06T05:54:39;2.97;;;2.70;;
15258;SDS011;34462;51.368;12.364;2023-08-06T05:57:07;3.28;;;2.50;;
15258;SDS011;34462;51.368;12.364;2023-08-06T05:59:35;2.88;;;2.47;;
15258;SDS011;34462;51.368;12.364;2023-08-06T06:02:04;3.25;;;2.70;;
15258;SDS011;34462;51.368;12.364;2023-08-06T06:04:32;2.80;;;2.60;;
15258;SDS011;34462;51.368;12.364;2023-08-06T06:07:01;2.80;;;2.60;;
15258;SDS011;34462;51.368;12.364;2023-08-06T06:09:29;2.80;;;2.40;;
15258;SDS011;34462;51.368;12.364;2023-08-06T06:11:59;2.70;;;2.50;;
15258;SDS011;34462;51.368;12.364;2023-08-06T06:14:27;2.72;;;2.53;;
15258;SDS011;34462;51.368;12.364;2023-08-06T06:16:55;2.33;;;2.13;;
15258;SDS011;34462;51.368;12.364;2023-08-06T06:19:23;2.45;;;2.05;;
15258;SDS011;34462;51.368;12.364;2023-08-06T06:21:54;2.60;;;2.40;;
15258;SDS011;34462;51.368;12.364;2023-08-06T06:24:24;3.15;;;2.50;;
15258;SDS011;34462;51.368;12.364;2023-08-06T06:26:52;2.38;;;2.17;;
15258;SDS011;34462;51.368;12.364;2023-08-06T06:29:21;3.63;;;2.28;;
15258;SDS011;34462;51.368;12.364;2023-08-06T06:31:50;2.15;;;2.05;;
15258;SDS011;34462;51.368;12.364;2023-08-06T06:34:18;4.18;;;2.00;;
15258;SDS011;34462;51.368;12.364;2023-08-06T06:36:46;2.83;;;2.40;;
15258;SDS011;34462;51.368;12.364;2023-08-06T06:39:15;2.35;;;2.15;;
15258;SDS011;34462;51.368;12.364;2023-08-06T06:41:45;2.85;;;2.58;;
15258;SDS011;34462;51.368;12.364;2023-08-06T06:44:13;2.92;;;2.67;;
15258;SDS011;34462;51.368;12.364;2023-08-06T06:46:43;2.83;;;2.63;;
15258;SDS011;34462;51.368;12.364;2023-08-06T06:49:11;3.50;;;3.20;;
15258;SDS011;34462;51.368;12.364;2023-08-06T06:51:39;3.55;;;3.17;;
15258;SDS011;34462;51.368;12.364;2023-08-06T06:54:08;3.28;;;2.97;;
15258;SDS011;34462;51.368;12.364;2023-08-06T06:56:36;3.45;;;3.15;;
15258;SDS011;34462;51.368;12.364;2023-08-06T06:59:04;3.67;;;2.60;;
15258;SDS011;34462;51.368;12.364;2023-08-06T07:01:32;4.28;;;2.97;;
15258;SDS011;34462;51.368;12.364;2023-08-06T07:04:02;3.03;;;2.38;;
15258;SDS011;34462;51.368;12.364;2023-08-06T07:06:31;3.28;;;2.80;;
15258;SDS011;34462;51.368;12.364;2023-08-06T07:08:59;2.60;;;2.40;;
15258;SDS011;34462;51.368;12.364;2023-08-06T07:11:28;2.50;;;2.30;;
15258;SDS011;34462;51.368;12.364;2023-08-06T07:13:56;3.40;;;3.05;;
15258;SDS011;34462;51.368;12.364;2023-08-06T07:16:25;2.63;;;2.40;;
15258;SDS011;34462;51.368;12.364;2023-08-06T07:18:58;3.22;;;2.30;;
15258;SDS011;34462;51.368;12.364;2023-08-06T07:21:28;2.67;;;2.47;;
15258;SDS011;34462;51.368;12.364;2023-08-06T07:23:56;6.15;;;3.38;;
15258;SDS011;34462;51.368;12.364;2023-08-06T07:26:25;2.92;;;2.67;;
15258;SDS011;34462;51.368;12.364;2023-08-06T07:28:53;3.55;;;2.53;;
15258;SDS011;34462;51.368;12.364;2023-08-06T07:31:22;3.90;;;3.20;;
15258;SDS011;34462;51.368;12.364;2023-08-06T07:33:50;3.40;;;3.10;;
15258;SDS011;34462;51.368;12.364;2023-08-06T07:36:18;3.60;;;2.88;;
15258;SDS011;34462;51.368;12.364;2023-08-06T07:38:49;2.92;;;2.72;;
15258;SDS011;34462;51.368;12.364;2023-08-06T07:41:22;3.30;;;2.72;;
15258;SDS011;34462;51.368;12.364;2023-08-06T07:43:50;3.20;;;2.50;;
15258;SDS011;34462;51.368;12.364;2023-08-06T07:46:18;3.47;;;2.50;;
15258;SDS011;34462;51.368;12.364;2023-08-06T07:48:46;2.72;;;2.35;;
15258;SDS011;34462;51.368;12.364;2023-08-06T07:51:14;2.05;;;1.95;;
15258;SDS011;34462;51.368;12.364;2023-08-06T07:53:43;2.60;;;2.30;;
15258;SDS011;34462;51.368;12.364;2023-08-06T07:56:13;2.38;;;2.17;;
15258;SDS011;34462;51.368;12.364;2023-08-06T07:58:42;2.53;;;2.33;;
15258;SDS011;34462;51.368;12.364;2023-08-06T08:01:10;3.03;;;2.05;;
15258;SDS011;34462;51.368;12.364;2023-08-06T08:03:38;2.40;;;2.20;;
15258;SDS011;34462;51.368;12.364;2023-08-06T08:06:06;2.30;;;2.10;;
15258;SDS011;34462;51.368;12.364;2023-08-06T08:08:34;2.47;;;2.28;;
15258;SDS011;34462;51.368;12.364;2023-08-06T08:11:05;2.30;;;2.10;;
15258;SDS011;34462;51.368;12.364;2023-08-06T08:13:34;2.30;;;2.10;;
15258;SDS011;34462;51.368;12.364;2023-08-06T08:16:03;2.50;;;2.30;;
15258;SDS011;34462;51.368;12.364;2023-08-06T08:18:31;2.55;;;2.35;;
15258;SDS011;34462;51.368;12.364;2023-08-06T08:20:59;2.33;;;2.13;;
15258;SDS011;34462;51.368;12.364;2023-08-06T08:23:27;2.80;;;2.33;;
15258;SDS011;34462;51.368;12.364;2023-08-06T08:25:57;3.35;;;2.17;;
15258;SDS011;34462;51.368;12.364;2023-08-06T08:28:26;2.40;;;2.20;;
15258;SDS011;34462;51.368;12.364;2023-08-06T08:30:55;2.53;;;2.22;;
15258;SDS011;34462;51.368;12.364;2023-08-06T08:33:24;2.72;;;2.00;;
15258;SDS011;34462;51.368;12.364;2023-08-06T08:35:52;2.65;;;2.45;;
15258;SDS011;34462;51.368;12.364;2023-08-06T08:38:20;3.38;;;2.20;;
15258;SDS011;34462;51.368;12.364;2023-08-06T08:40:49;2.10;;;1.90;;
15258;SDS011;34462;51.368;12.364;2023-08-06T08:43:21;3.67;;;2.05;;
15258;SDS011;34462;51.368;12.364;2023-08-06T08:45:51;2.35;;;2.15;;
15258;SDS011;34462;51.368;12.364;2023-08-06T08:48:23;2.55;;;2.00;;
15258;SDS011;34462;51.368;12.364;2023-08-06T08:50:53;2.67;;;2.40;;
15258;SDS011;34462;51.368;12.364;2023-08-06T08:53:22;3.25;;;2.90;;
15258;SDS011;34462;51.368;12.364;2023-08-06T08:55:54;2.90;;;2.70;;
15258;SDS011;34462;51.368;12.364;2023-08-06T08:58:22;3.10;;;2.28;;
15258;SDS011;34462;51.368;12.364;2023-08-06T09:00:51;2.45;;;2.25;;
15258;SDS011;34462;51.368;12.364;2023-08-06T09:03:20;2.50;;;2.30;;
15258;SDS011;34462;51.368;12.364;2023-08-06T09:05:51;2.83;;;2.63;;
15258;SDS011;34462;51.368;12.364;2023-08-06T09:08:24;2.45;;;2.25;;
15258;SDS011;34462;51.368;12.364;2023-08-06T09:11:01;2.88;;;2.40;;
15258;SDS011;34462;51.368;12.364;2023-08-06T09:13:31;2.10;;;2.00;;
15258;SDS011;34462;51.368;12.364;2023-08-06T09:15:59;2.58;;;2.38;;
15258;SDS011;34462;51.368;12.364;2023-08-06T09:18:28;2.67;;;2.40;;
15258;SDS011;34462;51.368;12.364;2023-08-06T09:20:59;2.70;;;2.50;;
15258;SDS011;34462;51.368;12.364;2023-08-06T09:23:27;2.80;;;2.20;;
15258;SDS011;34462;51.368;12.364;2023-08-06T09:25:57;4.50;;;2.45;;
15258;SDS011;34462;51.368;12.364;2023-08-06T09:28:31;2.70;;;2.30;;
15258;SDS011;34462;51.368;12.364;2023-08-06T09:31:06;3.10;;;2.88;;
15258;SDS011;34462;51.368;12.364;2023-08-06T09:33:35;4.43;;;3.15;;
15258;SDS011;34462;51.368;12.364;2023-08-06T09:36:10;2.92;;;2.08;;
15258;SDS011;34462;51.368;12.364;2023-08-06T09:38:39;3.15;;;2.50;;
15258;SDS011;34462;51.368;12.364;2023-08-06T09:41:08;2.20;;;2.08;;
15258;SDS011;34462;51.368;12.364;2023-08-06T09:43:39;1.98;;;1.83;;
15258;SDS011;34462;51.368;12.364;2023-08-06T09:46:12;2.45;;;2.25;;
15258;SDS011;34462;51.368;12.364;2023-08-06T09:48:44;3.05;;;1.98;;
15258;SDS011;34462;51.368;12.364;2023-08-06T09:51:15;2.17;;;1.98;;
15258;SDS011;34462;51.368;12.364;2023-08-06T09:53:44;2.58;;;2.38;;
15258;SDS011;34462;51.368;12.364;2023-08-06T09:56:17;2.33;;;1.80;;
15258;SDS011;34462;51.368;12.364;2023-08-06T09:58:46;3.88;;;2.20;;
15258;SDS011;34462;51.368;12.364;2023-08-06T10:01:16;2.00;;;1.80;;
15258;SDS011;34462;51.368;12.364;2023-08-06T10:03:47;3.53;;;2.20;;
15258;SDS011;34462;51.368;12.364;2023-08-06T10:06:19;2.22;;;2.13;;
15258;SDS011;34462;51.368;12.364;2023-08-06T10:08:50;2.00;;;1.90;;
15258;SDS011;34462;51.368;12.364;2023-08-06T10:11:18;2.40;;;2.20;;
15258;SDS011;34462;51.368;12.364;2023-08-06T10:13:50;2.13;;;2.00;;
15258;SDS011;34462;51.368;12.364;2023-08-06T10:16:25;3.10;;;2.00;;
15258;SDS011;34462;51.368;12.364;2023-08-06T10:18:55;2.20;;;2.00;;
15258;SDS011;34462;51.368;12.364;2023-08-06T10:21:26;2.10;;;2.00;;
15258;SDS011;34462;51.368;12.364;2023-08-06T10:23:56;2.08;;;1.98;;
15258;SDS011;34462;51.368;12.364;2023-08-06T10:26:25;2.85;;;2.00;;
15258;SDS011;34462;51.368;12.364;2023-08-06T10:28:54;1.75;;;1.60;;
15258;SDS011;34462;51.368;12.364;2023-08-06T10:34:22;1.98;;;1.67;;
15258;SDS011;34462;51.368;12.364;2023-08-06T10:36:55;3.22;;;1.98;;
15258;SDS011;34462;51.368;12.364;2023-08-06T10:39:23;2.33;;;1.90;;
15258;SDS011;34462;51.368;12.364;2023-08-06T10:41:56;1.80;;;1.70;;
15258;SDS011;34462;51.368;12.364;2023-08-06T10:44:26;1.98;;;1.88;;
15258;SDS011;34462;51.368;12.364;2023-08-06T10:46:58;2.40;;;1.73;;
15258;SDS011;34462;51.368;12.364;2023-08-06T10:50:11;1.70;;;1.60;;
15258;SDS011;34462;51.368;12.364;2023-08-06T10:52:44;1.98;;;1.88;;
15258;SDS011;34462;51.368;12.364;2023-08-06T10:55:13;1.70;;;1.60;;
15258;SDS011;34462;51.368;12.364;2023-08-06T10:57:41;1.75;;;1.65;;
15258;SDS011;34462;51.368;12.364;2023-08-06T11:00:10;1.83;;;1.73;;
15258;SDS011;34462;51.368;12.364;2023-08-06T11:02:42;2.15;;;1.90;;
15258;SDS011;34462;51.368;12.364;2023-08-06T11:05:11;2.45;;;2.22;;
15258;SDS011;34462;51.368;12.364;2023-08-06T11:07:40;2.75;;;1.90;;
15258;SDS011;34462;51.368;12.364;2023-08-06T11:10:10;2.42;;;2.22;;
15258;SDS011;34462;51.368;12.364;2023-08-06T11:12:40;1.73;;;1.63;;
15258;SDS011;34462;51.368;12.364;2023-08-06T11:15:09;2.15;;;1.83;;
15258;SDS011;34462;51.368;12.364;2023-08-06T11:17:39;2.33;;;1.60;;
15258;SDS011;34462;51.368;12.364;2023-08-06T11:20:09;1.55;;;1.45;;
15258;SDS011;34462;51.368;12.364;2023-08-06T11:22:40;1.70;;;1.60;;
15258;SDS011;34462;51.368;12.364;2023-08-06T11:25:10;2.22;;;1.75;;
15258;SDS011;34462;51.368;12.364;2023-08-06T11:27:38;1.73;;;1.63;;
15258;SDS011;34462;51.368;12.364;2023-08-06T11:30:07;1.88;;;1.50;;
15258;SDS011;34462;51.368;12.364;2023-08-06T11:32:44;1.73;;;1.63;;
15258;SDS011;34462;51.368;12.364;2023-08-06T11:35:14;2.75;;;1.70;;
15258;SDS011;34462;51.368;12.364;2023-08-06T11:37:43;1.80;;;1.70;;
15258;SDS011;34462;51.368;12.364;2023-08-06T11:40:15;2.42;;;1.70;;
15258;SDS011;34462;51.368;12.364;2023-08-06T11:42:46;1.85;;;1.65;;
15258;SDS011;34462;51.368;12.364;2023-08-06T11:45:15;2.38;;;1.85;;
15258;SDS011;34462;51.368;12.364;2023-08-06T11:47:49;1.92;;;1.80;;
15258;SDS011;34462;51.368;12.364;2023-08-06T11:50:22;2.33;;;1.75;;
15258;SDS011;34462;51.368;12.364;2023-08-06T11:52:55;3.38;;;1.98;;
15258;SDS011;34462;51.368;12.364;2023-08-06T11:55:27;2.90;;;1.85;;
15258;SDS011;34462;51.368;12.364;2023-08-06T11:57:56;2.03;;;1.77;;
15258;SDS011;34462;51.368;12.364;2023-08-06T12:00:25;1.80;;;1.70;;
15258;SDS011;34462;51.368;12.364;2023-08-06T12:02:53;1.65;;;1.55;;
15258;SDS011;34462;51.368;12.364;2023-08-06T12:05:23;1.73;;;1.63;;
15258;SDS011;34462;51.368;12.364;2023-08-06T12:07:59;1.92;;;1.80;;
15258;SDS011;34462;51.368;12.364;2023-08-06T12:10:31;2.00;;;1.90;;
15258;SDS011;34462;51.368;12.364;2023-08-06T12:13:00;1.90;;;1.80;;
15258;SDS011;34462;51.368;12.364;2023-08-06T12:15:29;1.67;;;1.58;;
15258;SDS011;34462;51.368;12.364;2023-08-06T12:17:59;1.90;;;1.80;;
15258;SDS011;34462;51.368;12.364;2023-08-06T12:20:27;1.70;;;1.60;;
15258;SDS011;34462;51.368;12.364;2023-08-06T12:22:56;1.80;;;1.70;;
15258;SDS011;34462;51.368;12.364;2023-08-06T12:25:25;1.42;;;1.33;;
15258;SDS011;34462;51.368;12.364;2023-08-06T12:27:54;1.60;;;1.50;;
15258;SDS011;34462;51.368;12.364;2023-08-06T12:30:22;1.65;;;1.55;;
15258;SDS011;34462;51.368;12.364;2023-08-06T12:32:51;2.25;;;1.77;;
15258;SDS011;34462;51.368;12.364;2023-08-06T12:35:19;1.77;;;1.67;;
15258;SDS011;34462;51.368;12.364;2023-08-06T12:37:47;1.80;;;1.70;;
15258;SDS011;34462;51.368;12.364;2023-08-06T12:40:17;1.75;;;1.63;;
15258;SDS011;34462;51.368;12.364;2023-08-06T12:43:02;1.50;;;1.40;;
15258;SDS011;34462;51.368;12.364;2023-08-06T12:45:31;1.50;;;1.40;;
15258;SDS011;34462;51.368;12.364;2023-08-06T12:47:59;1.65;;;1.50;;
15258;SDS011;34462;51.368;12.364;2023-08-06T12:50:27;1.67;;;1.50;;
15258;SDS011;34462;51.368;12.364;2023-08-06T12:52:55;1.80;;;1.70;;
15258;SDS011;34462;51.368;12.364;2023-08-06T12:55:23;1.75;;;1.60;;
15258;SDS011;34462;51.368;12.364;2023-08-06T12:57:52;2.17;;;1.60;;
15258;SDS011;34462;51.368;12.364;2023-08-06T13:00:25;1.67;;;1.50;;
15258;SDS011;34462;51.368;12.364;2023-08-06T13:02:54;1.45;;;1.35;;
15258;SDS011;34462;51.368;12.364;2023-08-06T13:05:24;1.80;;;1.70;;
15258;SDS011;34462;51.368;12.364;2023-08-06T13:07:52;1.55;;;1.45;;
15258;SDS011;34462;51.368;12.364;2023-08-06T13:10:20;2.08;;;1.60;;
15258;SDS011;34462;51.368;12.364;2023-08-06T13:12:49;1.70;;;1.60;;
15258;SDS011;34462;51.368;12.364;2023-08-06T13:15:17;1.80;;;1.70;;
15258;SDS011;34462;51.368;12.364;2023-08-06T13:17:48;1.55;;;1.45;;
15258;SDS011;34462;51.368;12.364;2023-08-06T13:20:17;1.98;;;1.77;;
15258;SDS011;34462;51.368;12.364;2023-08-06T13:22:46;2.40;;;1.80;;
15258;SDS011;34462;51.368;12.364;2023-08-06T13:25:17;1.42;;;1.33;;
15258;SDS011;34462;51.368;12.364;2023-08-06T13:27:45;1.50;;;1.40;;
15258;SDS011;34462;51.368;12.364;2023-08-06T13:30:14;1.40;;;1.30;;
15258;SDS011;34462;51.368;12.364;2023-08-06T13:32:44;2.50;;;1.40;;
15258;SDS011;34462;51.368;12.364;2023-08-06T13:35:13;1.42;;;1.33;;
15258;SDS011;34462;51.368;12.364;2023-08-06T13:37:41;1.20;;;1.10;;
15258;SDS011;34462;51.368;12.364;2023-08-06T13:40:10;1.75;;;1.45;;
15258;SDS011;34462;51.368;12.364;2023-08-06T13:42:38;1.40;;;1.30;;
15258;SDS011;34462;51.368;12.364;2023-08-06T13:45:06;1.67;;;1.33;;
15258;SDS011;34462;51.368;12.364;2023-08-06T13:47:35;1.50;;;1.40;;
15258;SDS011;34462;51.368;12.364;2023-08-06T13:50:04;1.48;;;1.38;;
15258;SDS011;34462;51.368;12.364;2023-08-06T13:52:34;2.40;;;1.40;;
15258;SDS011;34462;51.368;12.364;2023-08-06T13:55:03;1.45;;;1.35;;
15258;SDS011;34462;51.368;12.364;2023-08-06T13:57:32;1.50;;;1.30;;
15258;SDS011;34462;51.368;12.364;2023-08-06T14:00:01;1.48;;;1.38;;
15258;SDS011;34462;51.368;12.364;2023-08-06T14:02:31;1.40;;;1.30;;
15258;SDS011;34462;51.368;12.364;2023-08-06T14:04:59;1.40;;;1.30;;
15258;SDS011;34462;51.368;12.364;2023-08-06T14:07:28;1.40;;;1.25;;
15258;SDS011;34462;51.368;12.364;2023-08-06T14:09:57;1.25;;;1.15;;
15258;SDS011;34462;51.368;12.364;2023-08-06T14:12:25;2.10;;;1.80;;
15258;SDS011;34462;51.368;12.364;2023-08-06T14:14:53;1.50;;;1.40;;
15258;SDS011;34462;51.368;12.364;2023-08-06T14:17:21;2.22;;;1.48;;
15258;SDS011;34462;51.368;12.364;2023-08-06T14:19:50;1.50;;;1.40;;
15258;SDS011;34462;51.368;12.364;2023-08-06T14:22:18;1.77;;;1.35;;
15258;SDS011;34462;51.368;12.364;2023-08-06T14:24:46;1.23;;;1.13;;
15258;SDS011;34462;51.368;12.364;2023-08-06T14:27:15;1.90;;;1.30;;
15258;SDS011;34462;51.368;12.364;2023-08-06T14:29:44;1.60;;;1.27;;
15258;SDS011;34462;51.368;12.364;2023-08-06T14:32:12;1.38;;;1.27;;
15258;SDS011;34462;51.368;12.364;2023-08-06T14:34:41;2.40;;;1.50;;
15258;SDS011;34462;51.368;12.364;2023-08-06T14:37:09;1.98;;;1.27;;
15258;SDS011;34462;51.368;12.364;2023-08-06T14:39:37;1.40;;;1.30;;
15258;SDS011;34462;51.368;12.364;2023-08-06T14:42:05;1.38;;;1.23;;
15258;SDS011;34462;51.368;12.364;2023-08-06T14:44:35;1.67;;;1.50;;
15258;SDS011;34462;51.368;12.364;2023-08-06T14:47:03;1.30;;;1.20;;
15258;SDS011;34462;51.368;12.364;2023-08-06T14:49:31;1.60;;;1.33;;